createdAt,value
2023-02-18T00:02:32.881Z,1.92
2023-02-18T00:05:20.018Z,1.92
2023-02-18T00:08:06.882Z,1.84
2023-02-18T00:10:53.885Z,1.93
2023-02-18T00:13:40.805Z,1.92
2023-02-18T00:16:32.669Z,1.93
2023-02-18T00:19:23.072Z,1.93
2023-02-18T00:22:09.978Z,1.73
2023-02-18T00:24:56.924Z,1.88
2023-02-18T00:27:43.922Z,1.89
2023-02-18T00:30:31.428Z,1.93
2023-02-18T00:33:18.432Z,1.92
2023-02-18T00:36:05.665Z,1.93
2023-02-18T00:38:53.317Z,1.95
2023-02-18T00:41:42.256Z,1.94
2023-02-18T00:44:30.318Z,1.94
2023-02-18T00:47:17.677Z,1.93
2023-02-18T00:50:04.632Z,1.95
2023-02-18T00:52:51.582Z,1.62
2023-02-18T00:55:38.418Z,1.95
2023-02-18T00:58:25.339Z,1.95
2023-02-18T01:01:12.328Z,1.94
2023-02-18T01:04:02.517Z,1.96
2023-02-18T01:06:49.494Z,1.80
2023-02-18T01:09:36.443Z,1.96
2023-02-18T01:12:23.828Z,1.96
2023-02-18T01:15:10.936Z,1.96
2023-02-18T01:17:59.554Z,1.83
2023-02-18T01:20:46.801Z,1.92
2023-02-18T01:23:35.170Z,1.98
2023-02-18T01:26:22.397Z,1.97
2023-02-18T01:29:09.451Z,1.98
2023-02-18T01:31:56.604Z,1.99
2023-02-18T01:34:43.591Z,1.97
2023-02-18T01:37:30.572Z,1.99
2023-02-18T01:40:17.468Z,1.98
2023-02-18T01:43:04.893Z,1.95
2023-02-18T01:45:54.457Z,2.00
2023-02-18T01:48:56.658Z,1.99
2023-02-18T01:51:56.026Z,2.00
2023-02-18T01:54:55.964Z,2.00
2023-02-18T01:57:47.011Z,1.96
2023-02-18T02:00:39.064Z,1.69
2023-02-18T02:03:25.920Z,1.99
2023-02-18T02:06:12.890Z,2.00
2023-02-18T02:09:00.968Z,2.01
2023-02-18T02:12:03.000Z,2.01
2023-02-18T02:15:38.429Z,1.86
2023-02-18T02:18:47.233Z,2.00
2023-02-18T02:22:11.541Z,2.01
2023-02-18T02:25:16.218Z,2.01
2023-02-18T02:28:44.266Z,2.00
2023-02-18T02:31:59.019Z,2.00
2023-02-18T02:34:58.286Z,2.01
2023-02-18T02:37:54.635Z,2.01
2023-02-18T02:40:55.129Z,2.01
2023-02-18T02:44:16.323Z,2.01
2023-02-18T02:47:06.853Z,2.01
2023-02-18T02:50:14.081Z,1.85
2023-02-18T02:53:12.793Z,1.94
2023-02-18T02:56:00.501Z,1.86
2023-02-18T02:58:49.138Z,1.96
2023-02-18T03:01:54.183Z,2.02
2023-02-18T03:04:56.193Z,2.02
2023-02-18T03:08:05.085Z,2.03
2023-02-18T03:11:31.527Z,2.03
2023-02-18T03:14:33.960Z,2.04
2023-02-18T03:17:35.631Z,2.02
2023-02-18T03:20:34.506Z,1.98
2023-02-18T03:23:27.135Z,2.05
2023-02-18T03:26:17.045Z,2.06
2023-02-18T03:29:09.142Z,2.06
2023-02-18T03:31:58.801Z,2.05
2023-02-18T03:34:57.494Z,2.06
2023-02-18T03:37:44.716Z,1.95
2023-02-18T03:40:32.621Z,2.07
2023-02-18T03:43:21.707Z,2.06
2023-02-18T03:46:08.926Z,2.08
2023-02-18T03:48:56.277Z,2.00
2023-02-18T03:51:43.124Z,2.08
2023-02-18T03:54:31.062Z,2.09
2023-02-18T03:57:18.040Z,2.08
2023-02-18T04:00:04.954Z,2.09
2023-02-18T04:02:59.964Z,2.07
2023-02-18T04:05:47.182Z,2.02
2023-02-18T04:08:34.349Z,2.08
2023-02-18T04:11:21.694Z,2.04
2023-02-18T04:14:08.690Z,2.10
2023-02-18T04:16:56.124Z,2.09
2023-02-18T04:19:43.298Z,2.09
2023-02-18T04:22:30.413Z,2.10
2023-02-18T04:25:17.445Z,2.10
2023-02-18T04:28:04.395Z,2.10
2023-02-18T04:30:51.747Z,2.10
2023-02-18T04:33:38.857Z,2.05
2023-02-18T04:36:26.295Z,2.11
2023-02-18T04:39:13.453Z,2.11
2023-02-18T04:42:00.311Z,2.09
2023-02-18T04:44:47.662Z,2.10
2023-02-18T04:47:34.802Z,2.11
2023-02-18T04:50:21.770Z,2.11
2023-02-18T04:53:09.223Z,2.11
2023-02-18T04:55:56.646Z,2.11
2023-02-18T04:58:43.523Z,2.11
2023-02-18T05:01:31.095Z,1.91
2023-02-18T05:04:18.002Z,2.12
2023-02-18T05:07:05.161Z,2.11
2023-02-18T05:09:51.969Z,2.12
2023-02-18T05:12:38.942Z,2.08
2023-02-18T05:15:26.463Z,2.07
2023-02-18T05:18:13.469Z,2.12
2023-02-18T05:21:00.356Z,2.13
2023-02-18T05:23:47.528Z,2.12
2023-02-18T05:26:34.417Z,2.01
2023-02-18T05:29:21.606Z,2.10
2023-02-18T05:32:08.617Z,2.12
2023-02-18T05:34:55.713Z,2.06
2023-02-18T05:37:42.642Z,2.13
2023-02-18T05:40:31.151Z,2.12
2023-02-18T05:43:18.223Z,2.12
2023-02-18T05:46:05.552Z,2.09
2023-02-18T05:48:52.413Z,2.12
2023-02-18T05:51:39.522Z,2.12
2023-02-18T05:54:26.468Z,2.12
2023-02-18T05:57:14.498Z,2.12
2023-02-18T06:00:01.721Z,2.12
2023-02-18T06:02:51.978Z,2.02
2023-02-18T06:05:38.982Z,2.11
2023-02-18T06:08:25.972Z,2.12
2023-02-18T06:11:12.775Z,2.12
2023-02-18T06:13:59.858Z,2.11
2023-02-18T06:16:47.190Z,2.12
2023-02-18T06:19:34.199Z,2.10
2023-02-18T06:22:21.064Z,2.12
2023-02-18T06:25:08.449Z,2.12
2023-02-18T06:27:55.341Z,2.09
2023-02-18T06:30:42.314Z,2.12
2023-02-18T06:33:29.248Z,2.11
2023-02-18T06:36:19.222Z,2.13
2023-02-18T06:39:06.378Z,2.12
2023-02-18T06:41:53.567Z,2.12
2023-02-18T06:44:40.387Z,2.11
2023-02-18T06:47:27.349Z,2.10
2023-02-18T06:50:14.192Z,2.13
2023-02-18T06:53:01.242Z,2.13
2023-02-18T06:55:48.250Z,2.14
2023-02-18T06:58:35.880Z,2.13
2023-02-18T07:01:22.843Z,2.13
2023-02-18T07:04:09.975Z,2.14
2023-02-18T07:06:56.997Z,2.11
2023-02-18T07:09:44.132Z,2.13
2023-02-18T07:12:31.154Z,2.13
2023-02-18T07:15:18.149Z,2.11
2023-02-18T07:18:05.013Z,2.13
2023-02-18T07:20:52.087Z,2.12
2023-02-18T07:23:38.953Z,2.13
2023-02-18T07:26:32.010Z,2.13
2023-02-18T07:29:19.066Z,2.14
2023-02-18T07:32:05.978Z,2.13
2023-02-18T07:34:52.927Z,2.13
2023-02-18T07:37:40.826Z,2.15
2023-02-18T07:40:28.220Z,2.15
2023-02-18T07:43:15.195Z,2.15
2023-02-18T07:46:02.471Z,2.07
2023-02-18T07:48:49.481Z,2.17
2023-02-18T07:51:36.522Z,2.04
2023-02-18T10:12:08.903Z,2.20
2023-02-18T10:14:56.498Z,2.63
2023-02-18T10:17:47.910Z,2.57
2023-02-18T10:20:42.600Z,2.66
2023-02-18T10:23:32.311Z,2.67
2023-02-18T10:26:22.716Z,2.68
2023-02-18T10:29:09.764Z,2.70
2023-02-18T10:32:01.127Z,2.58
2023-02-18T10:35:14.321Z,2.70
2023-02-18T10:38:14.922Z,2.72
2023-02-18T10:41:01.991Z,2.74
2023-02-18T10:44:07.413Z,2.75
2023-02-18T10:47:36.521Z,2.77
2023-02-18T10:50:38.693Z,2.77
2023-02-18T10:53:33.818Z,2.76
2023-02-18T10:56:20.932Z,2.81
2023-02-18T10:59:08.185Z,2.51
2023-02-18T11:01:55.150Z,2.84
2023-02-18T11:05:01.324Z,2.84
2023-02-18T11:07:57.907Z,2.85
2023-02-18T11:10:49.294Z,2.54
2023-02-18T11:13:43.778Z,2.88
2023-02-18T11:16:32.596Z,2.89
2023-02-18T11:19:20.118Z,2.85
2023-02-18T11:22:07.684Z,2.78
2023-02-18T11:24:59.127Z,2.91
2023-02-18T11:27:48.904Z,2.93
2023-02-18T11:30:45.703Z,2.93
2023-02-18T11:33:41.720Z,2.93
2023-02-18T11:36:54.553Z,2.94
2023-02-18T11:39:28.164Z,2.94
2023-02-18T11:42:18.663Z,2.90
2023-02-18T11:45:13.713Z,2.96
2023-02-18T11:48:00.847Z,2.96
2023-02-18T11:50:53.336Z,2.99
2023-02-18T11:53:55.905Z,3.00
2023-02-18T11:56:42.928Z,3.01
2023-02-18T11:59:31.719Z,3.00
2023-02-18T12:02:30.937Z,3.02
2023-02-18T12:05:34.130Z,3.03
2023-02-18T12:08:44.843Z,3.04
2023-02-18T12:11:42.581Z,2.99
2023-02-18T12:14:43.703Z,3.01
2023-02-18T12:17:58.498Z,3.03
2023-02-18T12:21:07.246Z,3.03
2023-02-18T12:24:00.620Z,3.03
2023-02-18T12:27:04.807Z,3.03
2023-02-18T12:30:21.114Z,3.03
2023-02-18T12:33:23.338Z,3.01
2023-02-18T12:36:54.882Z,3.00
2023-02-18T12:39:50.573Z,2.99
2023-02-18T12:42:47.394Z,2.98
2023-02-18T12:46:13.238Z,2.98
2023-02-18T12:49:29.802Z,2.87
2023-02-18T12:52:49.273Z,2.97
2023-02-18T12:55:38.715Z,2.95
2023-02-18T12:58:58.511Z,2.95
2023-02-18T13:02:02.112Z,2.95
2023-02-18T13:05:00.326Z,2.96
2023-02-18T13:08:34.576Z,2.95
2023-02-18T13:11:55.621Z,2.93
2023-02-18T13:14:50.664Z,2.94
2023-02-18T13:17:39.609Z,2.91
2023-02-18T13:20:40.865Z,2.92
2023-02-18T13:23:36.252Z,2.91
2023-02-18T13:26:25.841Z,2.91
2023-02-18T13:29:23.452Z,2.90
2023-02-18T13:32:37.575Z,2.89
2023-02-18T13:35:27.454Z,2.89
2023-02-18T13:38:48.348Z,2.89
2023-02-18T13:41:35.878Z,2.88
2023-02-18T13:44:28.416Z,2.88
2023-02-18T13:47:18.489Z,2.87
2023-02-18T13:50:05.541Z,2.85
2023-02-18T13:52:52.633Z,2.86
2023-02-18T13:55:45.910Z,2.78
2023-02-18T13:58:43.882Z,2.82
2023-02-18T14:01:30.649Z,2.84
2023-02-18T14:04:19.440Z,2.76
2023-02-18T14:07:43.508Z,2.83
2023-02-18T14:10:37.013Z,2.83
2023-02-18T14:13:43.427Z,2.82
2023-02-18T14:16:31.323Z,2.80
2023-02-18T14:19:21.367Z,2.56
2023-02-18T14:22:08.198Z,2.78
2023-02-18T14:25:08.721Z,2.77
2023-02-18T14:27:57.582Z,2.76
2023-02-18T14:30:46.195Z,2.75
2023-02-18T14:33:36.372Z,2.75
2023-02-18T14:36:31.987Z,2.72
2023-02-18T14:39:55.870Z,2.71
2023-02-18T14:42:48.940Z,2.70
2023-02-18T14:45:39.417Z,2.70
2023-02-18T14:48:44.298Z,2.68
2023-02-18T14:51:36.210Z,2.66
2023-02-18T14:54:27.053Z,2.66
2023-02-18T14:57:21.982Z,2.64
2023-02-18T15:00:08.863Z,2.64
2023-02-18T15:02:57.499Z,2.62
2023-02-18T15:05:47.332Z,2.62
2023-02-18T15:08:43.030Z,2.53
2023-02-18T15:11:31.791Z,2.59
2023-02-18T15:14:18.644Z,2.51
2023-02-18T15:17:06.771Z,2.32
2023-02-18T15:20:03.931Z,2.24
2023-02-18T15:22:53.490Z,2.56
2023-02-18T15:25:40.596Z,2.47
2023-02-18T15:28:41.442Z,2.40
2023-02-18T15:31:31.439Z,2.43
2023-02-18T15:34:18.438Z,2.48
2023-02-18T15:37:12.293Z,2.47
2023-02-18T15:40:02.415Z,2.23
2023-02-18T15:42:53.144Z,2.44
2023-02-18T15:45:43.185Z,2.20
2023-02-18T15:48:50.209Z,2.41
2023-02-18T15:51:45.146Z,2.36
2023-02-18T15:54:37.766Z,2.04
2023-02-18T15:57:26.497Z,2.36
2023-02-18T16:00:25.501Z,2.33
2023-02-18T16:03:16.659Z,2.34
2023-02-18T16:06:03.515Z,2.32
2023-02-18T16:08:50.690Z,2.31
2023-02-18T16:11:37.626Z,2.31
2023-02-18T16:14:24.595Z,2.21
2023-02-18T16:17:27.129Z,2.29
2023-02-18T16:20:45.533Z,2.27
2023-02-18T16:23:34.118Z,2.26
2023-02-18T16:26:43.164Z,2.20
2023-02-18T16:29:44.911Z,2.22
2023-02-18T16:32:31.961Z,2.24
2023-02-18T16:35:18.893Z,2.22
2023-02-18T16:38:06.298Z,2.20
2023-02-18T16:40:54.950Z,2.19
2023-02-18T16:43:29.563Z,2.18
2023-02-18T16:46:18.896Z,2.18
2023-02-18T16:49:09.317Z,2.17
2023-02-18T16:51:56.333Z,2.13
2023-02-18T16:54:43.328Z,1.97
2023-02-18T16:57:33.642Z,2.02
2023-02-18T17:00:21.659Z,1.99
2023-02-18T17:03:11.562Z,2.13
2023-02-18T17:06:01.592Z,2.10
2023-02-18T17:08:48.560Z,2.10
2023-02-18T17:11:48.510Z,2.10
2023-02-18T17:14:39.877Z,2.09
2023-02-18T17:17:31.919Z,2.11
2023-02-18T17:20:19.224Z,2.11
2023-02-18T17:23:06.234Z,1.97
2023-02-18T17:25:59.667Z,2.10
2023-02-18T17:28:46.596Z,2.06
2023-02-18T17:31:40.375Z,2.09
2023-02-18T17:34:32.303Z,2.09
2023-02-18T17:37:39.064Z,2.08
2023-02-18T17:40:33.180Z,2.07
2023-02-18T17:43:20.496Z,2.06
2023-02-18T17:46:16.091Z,1.96
2023-02-18T17:49:04.642Z,1.95
2023-02-18T17:51:51.640Z,2.04
2023-02-18T17:54:40.609Z,2.03
2023-02-18T17:57:28.350Z,1.75
2023-02-18T18:00:15.304Z,2.01
2023-02-18T18:03:02.467Z,1.98
2023-02-18T18:05:52.295Z,1.98
2023-02-18T18:08:39.169Z,1.68
2023-02-18T18:11:26.451Z,1.95
2023-02-18T18:14:13.409Z,1.91
2023-02-18T18:16:41.021Z,1.94
2023-02-18T18:19:28.030Z,1.94
2023-02-18T18:22:15.163Z,1.93
2023-02-18T18:25:01.991Z,1.92
2023-02-18T18:27:49.086Z,1.76
2023-02-18T18:30:36.667Z,1.92
2023-02-18T18:33:30.180Z,1.91
2023-02-18T18:36:18.718Z,1.89
2023-02-18T18:39:06.575Z,1.89
2023-02-18T18:41:53.484Z,1.87
2023-02-18T18:44:40.514Z,1.77
2023-02-18T18:47:15.347Z,1.86
2023-02-18T18:50:02.598Z,1.86
2023-02-18T18:52:49.584Z,1.86
2023-02-18T18:55:48.939Z,1.84
2023-02-18T18:58:36.391Z,1.85
2023-02-18T19:01:25.470Z,1.83
2023-02-18T19:04:12.457Z,1.84
2023-02-18T19:06:59.686Z,1.85
2023-02-18T19:09:46.551Z,1.80
2023-02-18T19:12:33.711Z,1.83
2023-02-18T19:15:22.816Z,1.80
2023-02-18T19:18:14.779Z,1.82
2023-02-18T19:21:02.494Z,1.70
2023-02-18T19:23:49.745Z,1.79
2023-02-18T19:26:36.659Z,1.81
2023-02-18T19:29:23.725Z,1.73
2023-02-18T19:32:10.895Z,1.63
2023-02-18T19:34:58.039Z,1.80
2023-02-18T19:37:45.006Z,1.67
2023-02-18T19:40:34.220Z,1.78
2023-02-18T19:43:21.112Z,1.78
2023-02-18T19:46:08.156Z,1.78
2023-02-18T19:48:55.122Z,1.63
2023-02-18T19:51:42.213Z,1.77
2023-02-18T19:54:29.065Z,1.76
2023-02-18T19:57:15.987Z,1.75
2023-02-18T20:00:02.959Z,1.75
2023-02-18T20:03:00.078Z,1.55
2023-02-18T20:05:47.218Z,1.74
2023-02-18T20:08:34.191Z,1.73
2023-02-18T20:11:21.080Z,1.73
2023-02-18T20:14:08.625Z,1.73
2023-02-18T20:16:55.645Z,1.73
2023-02-18T20:19:42.674Z,1.70
2023-02-18T20:22:32.301Z,1.71
2023-02-18T20:25:20.180Z,1.71
2023-02-18T20:28:07.146Z,1.70
2023-02-18T20:30:54.006Z,1.61
2023-02-18T20:33:41.133Z,1.58
2023-02-18T20:36:28.906Z,1.70
2023-02-18T20:39:16.563Z,1.69
2023-02-18T20:42:15.476Z,1.58
2023-02-18T20:45:03.862Z,1.67
2023-02-18T20:47:50.758Z,1.60
2023-02-18T20:50:37.745Z,1.66
2023-02-18T20:53:24.761Z,1.55
2023-02-18T20:56:11.788Z,1.51
2023-02-18T20:58:58.983Z,1.57
2023-02-18T21:01:46.717Z,1.63
2023-02-18T21:04:36.684Z,1.61
2023-02-18T21:07:23.501Z,1.60
2023-02-18T21:10:10.455Z,1.58
2023-02-18T21:12:57.322Z,1.58
2023-02-18T21:15:44.198Z,1.56
2023-02-18T21:18:31.374Z,1.54
2023-02-18T21:21:20.987Z,1.55
2023-02-18T21:24:08.042Z,1.53
2023-02-18T21:26:55.596Z,1.54
2023-02-18T21:29:42.604Z,1.47
2023-02-18T21:32:29.639Z,1.51
2023-02-18T21:35:16.546Z,1.43
2023-02-18T21:38:03.381Z,1.49
2023-02-18T21:40:50.939Z,1.48
2023-02-18T21:43:37.872Z,1.47
2023-02-18T21:46:29.510Z,1.35
2023-02-18T21:49:26.830Z,1.31
2023-02-18T21:52:16.796Z,1.46
2023-02-18T21:55:06.969Z,1.35
2023-02-18T21:57:53.949Z,1.43
2023-02-18T22:00:41.198Z,1.44
2023-02-18T22:03:28.133Z,1.04
2023-02-18T22:06:15.032Z,1.42
2023-02-18T22:09:01.923Z,1.36
2023-02-18T22:11:29.977Z,1.41
2023-02-18T22:14:16.968Z,1.41
2023-02-18T22:17:04.327Z,1.33
2023-02-18T22:19:51.416Z,1.39
2023-02-18T22:22:38.426Z,1.38
2023-02-18T22:25:26.109Z,1.36
2023-02-18T22:28:13.082Z,1.38
2023-02-18T22:31:00.119Z,1.37
2023-02-18T22:33:35.519Z,1.36
2023-02-18T22:36:08.173Z,1.36
2023-02-18T22:38:40.413Z,1.35
2023-02-18T22:41:29.964Z,1.34
2023-02-18T22:44:19.084Z,1.28
2023-02-18T22:47:05.983Z,1.34
2023-02-18T22:49:53.185Z,1.34
2023-02-18T22:52:35.803Z,1.32
2023-02-18T22:55:23.201Z,1.34
2023-02-18T22:58:10.035Z,1.34
2023-02-18T23:00:57.098Z,1.34
2023-02-18T23:03:44.099Z,1.34
2023-02-18T23:06:31.192Z,1.33
2023-02-18T23:08:58.552Z,1.33
2023-02-18T23:11:45.762Z,1.31
2023-02-18T23:14:38.718Z,1.32
2023-02-18T23:17:34.447Z,1.27
2023-02-18T23:20:21.297Z,1.29
2023-02-18T23:23:08.478Z,1.31
2023-02-18T23:25:55.514Z,1.30
2023-02-18T23:28:42.677Z,1.28
2023-02-18T23:31:29.703Z,1.28
2023-02-18T23:34:19.156Z,1.27
2023-02-18T23:36:51.458Z,1.18
2023-02-18T23:39:37.049Z,1.22
2023-02-18T23:42:24.274Z,1.22
2023-02-18T23:45:12.241Z,1.27
2023-02-18T23:47:59.161Z,1.25
2023-02-18T23:50:34.695Z,1.25
2023-02-18T23:53:21.640Z,1.17
2023-02-18T23:56:08.503Z,1.23
2023-02-18T23:58:55.453Z,1.23
